Nederlandse vliegveldverwachtingen (TAF)

Luchtvaartmeteorologische informatie voor operationeel gebruik en vluchtvoorbereiding is beschikbaar op www.luchtvaartmeteo.nl.

ZCZC
FC230500 EHGR     GILZE-RIJEN/GILZE-RIJEN   NLD   14 m.
TAF COR EHGR 230517Z 2305/2317 04004KT CAVOK
    PROB40 TEMPO 2305/2309 4500 SHRA SCT055CB BKN060
    PROB30 TEMPO 2305/2307 VRB12G25KT 3000 TSRA SCT050CB
    BKN060
    BECMG 2310/2312 05010KT=

ZCZC
FC230500 EHKD     DE KOOY/DE KOOY   NLD   1 m.
TAF COR EHKD 230517Z 2305/2317 05007KT CAVOK
    PROB30 TEMPO 2306/2309 SCT055CB BKN060
    BECMG 2310/2312 06012G22KT=

ZCZC
FC230500 EHLW     LEEUWARDEN/LEEUWARDEN   NLD   1 m.
TAF COR EHLW 230517Z 2305/2317 05007KT CAVOK
    PROB40 TEMPO 2305/2308 4500 SHRA SCT055CB BKN060
    BECMG 2310/2312 06012G22KT=

ZCZC
FC230500 EHVK     VOLKEL/VOLKEL   NLD   21 m.
TAF COR EHVK 230517Z 2305/2317 02004KT CAVOK
    PROB40 TEMPO 2305/2309 4500 SHRA SCT055CB BKN060
    PROB30 TEMPO 2305/2307 VRB12G25KT 3000 TSRA SCT050CB
    BKN060
    BECMG 2310/2312 05010G20KT=

ZCZC
FC230500 EHWO     WOENSDRECHT/WOENSDRECHT   NLD   19 m.
TAF COR EHWO 230518Z 2305/2317 04004KT 4000 BR NSC
    PROB40 TEMPO 2305/2309 4500 SHRA SCT055CB BKN060
    PROB30 TEMPO 2305/2307 VRB12G25KT 3000 TSRA SCT050CB
    BKN060
    BECMG 2306/2309 05008KT CAVOK
    BECMG 2310/2312 05010G20KT=

ZCZC
FT230500 EHAM     AMSTERDAM/SCHIPHOL   NLD   -3 m.
TAF EHAM 230453Z 2306/2412 06011KT CAVOK
    PROB30 TEMPO 2306/2310 7000 -RA -SHRA SCT060CB=

ZCZC
FT230500 EHGG     GRONINGEN/EELDE   NLD   5 m.
TAF EHGG 230510Z 2306/2412 04005KT CAVOK
    PROB40 TEMPO 2306/2308 7000 RA
    BECMG 2309/2311 08012KT
    BECMG 2318/2320 05007KT
    BECMG 2408/2411 09016KT=

ZCZC
FT230500 EHRD     ROTTERDAM/THE HAGUE AIRPORT   NLD   -5 m.
TAF EHRD 230453Z 2306/2412 06011KT CAVOK
    PROB40 TEMPO 2306/2310 6000 SHRA RA SCT060CB=

ZCZC
FT230500 EHBK AAA MAASTRICHT/MAASTRICHT-AACHEN   NLD   114 m.
TAF AMD EHBK 230558Z 2306/2412 05008KT 3000 BR -RADZ BKN003
    BECMG 2306/2308 7000 NSW SCT014
    BECMG 2308/2310 CAVOK
    PROB30 TEMPO 2315/2318 VRB10G20KT 2000 TSRA TSRAGR SCT040CB
    TEMPO 2411/2412 3000 SHRA TSRA SCT040CB
    PROB30 TEMPO 2411/2412 12015G25KT 1200 +TSRAGR BKN040CB=

ZCZC
FT230500 EHEH     EINDHOVEN/EINDHOVEN   NLD   22 m.
TAF EHEH 230502Z 2306/2412 03006KT 9000 NSC
    TEMPO 2306/2318 VRB15G25KT 4000 SHRA SCT050CB BKN060
    BECMG 2309/2312 06010G20KT
    PROB40 TEMPO 2311/2318 VRB15G30KT 2000 +SHRA TSRAGR
    SCT050CB SCT070
    BECMG 2317/2320 06007KT
    BECMG 2306/2308 07008G18KT=

23/05/2018 08.15 uur LT